Carnival Glory — 3FPS9 — position and weather

sailwx.info

Track history (hours):
 
Tides and Currents Weather Stations Pressure Air Temp Water Temp Dewpoint Dewpoint Depression Visibility Wind Speed Wind Dir Waves Ship Positions

Carnival Glory

Operator: Carnival Cruise Lines

Last reported at 2019-Oct-18 23:29 UTC. Time now 2019-Oct-19 00:22 UTC.
Position N 20°52' W 086°47'.

Type: Passenger vessel. MMSI: 357659000.

Date/timePositionNaut miles runAvg speedWind from/ knotsBaromVisibWave heightAir tempDewpointWater temp
2019-Oct-18 23:29N 20°52' W 086°47'1123.4
2019-Oct-18 23:01N 20°42' W 086°53'1020.3
2019-Oct-18 22:31N 20°34' W 086°59'510.6
2019-Oct-18 22:00N 20°29' W 086°59'0 0.9
2019-Oct-18 21:28N 20°29' W 086°59'0 0.0
2019-Oct-18 20:55N 20°29' W 086°59'0 0.0
2019-Oct-18 20:28N 20°29' W 086°59'0 0.0
2019-Oct-18 19:58N 20°29' W 086°59'0 0.0
2019-Oct-18 19:25N 20°29' W 086°59'0 0.0
2019-Oct-18 18:58N 20°29' W 086°59'0 0.0
2019-Oct-18 18:28N 20°29' W 086°59'0 0.0
2019-Oct-18 17:58N 20°29' W 086°59'0 0.0
2019-Oct-18 17:28N 20°29' W 086°59'0 0.0
2019-Oct-18 16:58N 20°29' W 086°59'0 0.0
2019-Oct-18 16:28N 20°29' W 086°59'0 0.0
2019-Oct-18 15:58N 20°29' W 086°59'0 0.0
2019-Oct-18 15:25N 20°29' W 086°59'0 0.0
2019-Oct-18 14:58N 20°29' W 086°59'0 0.0
2019-Oct-18 14:28N 20°29' W 086°59'0 0.0
2019-Oct-18 13:58N 20°29' W 086°59'0 0.0
2019-Oct-18 13:28N 20°29' W 086°59'0 0.0
2019-Oct-18 12:49N 20°29' W 086°59'0 0.0
2019-Oct-18 12:28N 20°29' W 086°59'0 0.0
2019-Oct-18 11:58N 20°29' W 086°59'0 0.0
2019-Oct-18 11:31N 20°29' W 086°59'2 4.3
2019-Oct-18 11:00N 20°30' W 087°00'510.8
2019-Oct-18 10:31N 20°26' W 087°04'1118.0
2019-Oct-18 09:53N 20°15' W 087°07'7820.9
2019-Oct-18 06:09N 18°58' W 087°22'422.5
2019-Oct-18 05:59N 18°55' W 087°25'4522.4
2019-Oct-18 03:57N 18°13' W 087°42'1021.4
2019-Oct-18 03:28N 18°03' W 087°45'1021.1
2019-Oct-18 03:00N 17°54' W 087°48'1020.5
2019-Oct-18 02:30N 17°44' W 087°51'918.9
2019-Oct-18 02:00N 17°35' W 087°54'918.2
2019-Oct-18 01:29N 17°26' W 087°57'815.9
2019-Oct-18 01:00N 17°19' W 088°00'510.4
2019-Oct-18 00:30N 17°22' W 088°05'4 8.2
2019-Oct-18 00:00N 17°22' W 088°09'4 7.9
2019-Oct-17 23:30N 17°26' W 088°09'1 1.2
2019-Oct-17 23:00N 17°26' W 088°08'0 0.3
2019-Oct-17 22:30N 17°26' W 088°08'0 0.4
2019-Oct-17 22:00N 17°26' W 088°08'0 0.2
2019-Oct-17 21:29N 17°26' W 088°08'0 0.0
2019-Oct-17 20:59N 17°26' W 088°08'0 0.0
2019-Oct-17 20:30N 17°26' W 088°08'0 0.0
2019-Oct-17 19:59N 17°26' W 088°08'0 0.0
2019-Oct-17 18:50N 17°26' W 088°08'0 0.0
2019-Oct-17 17:50N 17°26' W 088°08'0 0.0
2019-Oct-17 16:36N 17°26' W 088°08'0 0.1
2019-Oct-17 16:29N 17°26' W 088°08'4 0.9
2019-Oct-17 12:21N 17°24' W 088°11'4 8.0
2019-Oct-17 11:48N 17°23' W 088°06'3 8.1
2019-Oct-17 11:28N 17°21' W 088°04'9 9.8
2019-Oct-17 10:35N 17°14' W 087°59'110.5
2019-Oct-17 10:30N 17°13' W 087°59'1311.2
2019-Oct-17 09:21N 17°04' W 087°49'411.5
2019-Oct-17 09:00N 17°02' W 087°45'611.6
2019-Oct-17 08:31N 16°60' W 087°40'611.8
2019-Oct-17 07:59N 16°57' W 087°34'511.4
2019-Oct-17 07:30N 16°54' W 087°29'611.4
2019-Oct-17 07:00N 16°55' W 087°23'611.5
2019-Oct-17 06:29N 16°55' W 087°17'611.5
2019-Oct-17 05:59N 16°55' W 087°11'511.4
2019-Oct-17 05:30N 16°55' W 087°05'611.9
2019-Oct-17 05:00N 16°56' W 086°59'612.1
2019-Oct-17 04:30N 16°56' W 086°53'611.2
2019-Oct-17 04:01N 16°51' W 086°49'611.3
2019-Oct-17 03:31N 16°46' W 086°49'611.3
2019-Oct-17 03:00N 16°40' W 086°49'510.9
2019-Oct-17 02:30N 16°35' W 086°49'510.8
2019-Oct-17 02:01N 16°29' W 086°49'510.6
2019-Oct-17 01:30N 16°24' W 086°49'5 9.9
2019-Oct-17 01:00N 16°20' W 086°46'510.5
2019-Oct-17 00:30N 16°17' W 086°42'510.2
2019-Oct-17 00:00N 16°14' W 086°38'510.2
2019-Oct-16 23:30N 16°15' W 086°32'5 9.1
2019-Oct-16 23:00N 16°18' W 086°30'1 2.1
2019-Oct-16 22:28N 16°20' W 086°30'0 0.0
2019-Oct-16 21:46N 16°20' W 086°30'0 0.0
2019-Oct-16 21:28N 16°20' W 086°30'0 0.0
2019-Oct-16 20:58N 16°20' W 086°30'0 0.0
2019-Oct-16 20:28N 16°20' W 086°30'0 0.0
2019-Oct-16 19:58N 16°20' W 086°30'0 0.0
2019-Oct-16 19:28N 16°20' W 086°30'0 0.0
2019-Oct-16 18:58N 16°20' W 086°30'0 0.0
2019-Oct-16 18:28N 16°20' W 086°30'0 0.0
2019-Oct-16 17:58N 16°20' W 086°30'0 0.0
2019-Oct-16 17:25N 16°20' W 086°30'0 0.0
2019-Oct-16 16:55N 16°20' W 086°30'0 0.0
2019-Oct-16 16:28N 16°20' W 086°30'0 0.0
2019-Oct-16 15:58N 16°20' W 086°30'0 0.0
2019-Oct-16 15:25N 16°20' W 086°30'0 0.0
2019-Oct-16 14:58N 16°20' W 086°30'0 0.0
2019-Oct-16 14:22N 16°20' W 086°30'0 0.0
2019-Oct-16 13:58N 16°20' W 086°30'0 0.0
2019-Oct-16 13:28N 16°20' W 086°30'0 0.0
2019-Oct-16 13:00N 16°20' W 086°30'1 1.4
2019-Oct-16 12:30N 16°19' W 086°30'3 6.2
2019-Oct-16 12:00N 16°16' W 086°31'917.1
2019-Oct-16 11:30N 16°15' W 086°40'1020.1
2019-Oct-16 11:00N 16°25' W 086°38'1021.1
2019-Oct-16 10:31N 16°34' W 086°34'1121.1
2019-Oct-16 10:00N 16°44' W 086°31'1220.7
2019-Oct-16 09:27N 16°55' W 086°27'2519.3
2019-Oct-16 08:09N 17°18' W 086°17'  
2019-Oct-13 23:33N 29°38' W 089°55'112.4
2019-Oct-13 23:29N 29°38' W 089°56'612.1
2019-Oct-13 23:00N 29°43' W 089°59'612.2
2019-Oct-13 22:30N 29°50' W 089°60'5 9.7
2019-Oct-13 21:59N 29°52' W 089°55'5 8.9
2019-Oct-13 21:29N 29°55' W 089°58'510.1
2019-Oct-13 21:00N 29°57' W 090°04'0 0.7
2019-Oct-13 20:25N 29°56' W 090°04'0 0.0
2019-Oct-13 19:55N 29°56' W 090°04'0 0.0
2019-Oct-13 19:25N 29°56' W 090°04'0 0.0
2019-Oct-13 18:55N 29°56' W 090°04'0 0.0
2019-Oct-13 18:25N 29°56' W 090°04'0 0.0
2019-Oct-13 17:55N 29°56' W 090°04'0 0.0
2019-Oct-13 17:19N 29°56' W 090°04'0 0.0
2019-Oct-13 16:55N 29°56' W 090°04'0 0.0
2019-Oct-13 16:25N 29°56' W 090°04'0 0.0
2019-Oct-13 15:55N 29°56' W 090°04'0 0.0
2019-Oct-13 15:25N 29°56' W 090°04'0 0.0
2019-Oct-13 14:55N 29°56' W 090°04'0 0.0
2019-Oct-13 14:25N 29°56' W 090°04'0 0.0
2019-Oct-13 13:55N 29°56' W 090°04'0 0.0
2019-Oct-13 13:25N 29°56' W 090°04'0 0.0
2019-Oct-13 12:55N 29°56' W 090°04'0 0.0
2019-Oct-13 12:25N 29°56' W 090°04'0 0.0
2019-Oct-13 11:55N 29°56' W 090°04'0 0.0
2019-Oct-13 11:25N 29°56' W 090°04'0 0.0
2019-Oct-13 10:55N 29°56' W 090°04'0 0.1
2019-Oct-13 10:30N 29°56' W 090°04'3 6.4
2019-Oct-13 10:00N 29°56' W 089°60'510.3
2019-Oct-13 09:30N 29°54' W 089°55'3 5.3
2019-Oct-13 09:00N 29°53' W 089°57'4 8.1
2019-Oct-13 08:30N 29°49' W 089°60'510.2
2019-Oct-13 08:00N 29°44' W 090°00'612.4
2019-Oct-13 07:28N 29°38' W 089°57'55418.2
2019-Oct-12 00:59N 20°51' W 086°47'1021.5
2019-Oct-12 00:30N 20°43' W 086°53'918.7
2019-Oct-12 00:01N 20°35' W 086°58'611.5
2019-Oct-11 23:31N 20°30' W 086°60'1 2.5
2019-Oct-11 22:59N 20°29' W 086°59'0 0.0
2019-Oct-11 22:29N 20°29' W 086°59'0 0.0
2019-Oct-11 21:59N 20°29' W 086°59'0 0.0
2019-Oct-11 21:29N 20°29' W 086°59'0 0.0
2019-Oct-11 20:59N 20°29' W 086°59'0 0.0
2019-Oct-11 20:23N 20°29' W 086°59'0 0.0
2019-Oct-11 19:59N 20°29' W 086°59'0 0.0
2019-Oct-11 19:29N 20°29' W 086°59'0 0.0
2019-Oct-11 18:59N 20°29' W 086°59'0 0.0
2019-Oct-11 18:29N 20°29' W 086°59'0 0.0
2019-Oct-11 17:56N 20°29' W 086°59'0 0.0
2019-Oct-11 17:29N 20°29' W 086°59'0 0.0
2019-Oct-11 16:59N 20°29' W 086°59'0 0.0
2019-Oct-11 16:23N 20°29' W 086°59'0 0.0
2019-Oct-11 15:59N 20°29' W 086°59'0 0.0
2019-Oct-11 15:29N 20°29' W 086°59'0 0.0
2019-Oct-11 14:59N 20°29' W 086°59'0 0.1
2019-Oct-11 14:30N 20°29' W 086°59'3 5.5
2019-Oct-11 14:00N 20°31' W 086°59'4 8.9
2019-Oct-11 13:30N 20°35' W 086°57'613.1
2019-Oct-11 13:01N 20°40' W 086°52'1116.8
2019-Oct-11 12:23N 20°40' W 086°40'  
Track history (hours):
 
Tides and Currents Weather Stations Pressure Air Temp Water Temp Dewpoint Dewpoint Depression Visibility Wind Speed Wind Dir Waves Ship Positions

Carnival Glory

Operator: Carnival Cruise Lines

Last reported at 2019-Oct-18 23:29 UTC. Time now 2019-Oct-19 00:22 UTC.
Position N 20°52' W 086°47'.

Type: Passenger vessel. MMSI: 357659000.

Date/timePositionNaut miles runAvg speedWind from/ knotsBaromVisibWave heightAir tempDewpointWater temp
2019-Oct-18 23:29N 20°52' W 086°47'1123.4
2019-Oct-18 23:01N 20°42' W 086°53'1020.3
2019-Oct-18 22:31N 20°34' W 086°59'510.6
2019-Oct-18 22:00N 20°29' W 086°59'0 0.9
2019-Oct-18 21:28N 20°29' W 086°59'0 0.0
2019-Oct-18 20:55N 20°29' W 086°59'0 0.0
2019-Oct-18 20:28N 20°29' W 086°59'0 0.0
2019-Oct-18 19:58N 20°29' W 086°59'0 0.0
2019-Oct-18 19:25N 20°29' W 086°59'0 0.0
2019-Oct-18 18:58N 20°29' W 086°59'0 0.0
2019-Oct-18 18:28N 20°29' W 086°59'0 0.0
2019-Oct-18 17:58N 20°29' W 086°59'0 0.0
2019-Oct-18 17:28N 20°29' W 086°59'0 0.0
2019-Oct-18 16:58N 20°29' W 086°59'0 0.0
2019-Oct-18 16:28N 20°29' W 086°59'0 0.0
2019-Oct-18 15:58N 20°29' W 086°59'0 0.0
2019-Oct-18 15:25N 20°29' W 086°59'0 0.0
2019-Oct-18 14:58N 20°29' W 086°59'0 0.0
2019-Oct-18 14:28N 20°29' W 086°59'0 0.0
2019-Oct-18 13:58N 20°29' W 086°59'0 0.0
2019-Oct-18 13:28N 20°29' W 086°59'0 0.0
2019-Oct-18 12:49N 20°29' W 086°59'0 0.0
2019-Oct-18 12:28N 20°29' W 086°59'0 0.0
2019-Oct-18 11:58N 20°29' W 086°59'0 0.0
2019-Oct-18 11:31N 20°29' W 086°59'2 4.3
2019-Oct-18 11:00N 20°30' W 087°00'510.8
2019-Oct-18 10:31N 20°26' W 087°04'1118.0
2019-Oct-18 09:53N 20°15' W 087°07'7820.9
2019-Oct-18 06:09N 18°58' W 087°22'422.5
2019-Oct-18 05:59N 18°55' W 087°25'4522.4
2019-Oct-18 03:57N 18°13' W 087°42'1021.4
2019-Oct-18 03:28N 18°03' W 087°45'1021.1
2019-Oct-18 03:00N 17°54' W 087°48'1020.5
2019-Oct-18 02:30N 17°44' W 087°51'918.9
2019-Oct-18 02:00N 17°35' W 087°54'918.2
2019-Oct-18 01:29N 17°26' W 087°57'815.9
2019-Oct-18 01:00N 17°19' W 088°00'510.4
2019-Oct-18 00:30N 17°22' W 088°05'4 8.2
2019-Oct-18 00:00N 17°22' W 088°09'4 7.9
2019-Oct-17 23:30N 17°26' W 088°09'1 1.2
2019-Oct-17 23:00N 17°26' W 088°08'0 0.3
2019-Oct-17 22:30N 17°26' W 088°08'0 0.4
2019-Oct-17 22:00N 17°26' W 088°08'0 0.2
2019-Oct-17 21:29N 17°26' W 088°08'0 0.0
2019-Oct-17 20:59N 17°26' W 088°08'0 0.0
2019-Oct-17 20:30N 17°26' W 088°08'0 0.0
2019-Oct-17 19:59N 17°26' W 088°08'0 0.0
2019-Oct-17 18:50N 17°26' W 088°08'0 0.0
2019-Oct-17 17:50N 17°26' W 088°08'0 0.0
2019-Oct-17 16:36N 17°26' W 088°08'0 0.1
2019-Oct-17 16:29N 17°26' W 088°08'4 0.9
2019-Oct-17 12:21N 17°24' W 088°11'4 8.0
2019-Oct-17 11:48N 17°23' W 088°06'3 8.1
2019-Oct-17 11:28N 17°21' W 088°04'9 9.8
2019-Oct-17 10:35N 17°14' W 087°59'110.5
2019-Oct-17 10:30N 17°13' W 087°59'1311.2
2019-Oct-17 09:21N 17°04' W 087°49'411.5
2019-Oct-17 09:00N 17°02' W 087°45'611.6
2019-Oct-17 08:31N 16°60' W 087°40'611.8
2019-Oct-17 07:59N 16°57' W 087°34'511.4
2019-Oct-17 07:30N 16°54' W 087°29'611.4
2019-Oct-17 07:00N 16°55' W 087°23'611.5
2019-Oct-17 06:29N 16°55' W 087°17'611.5
2019-Oct-17 05:59N 16°55' W 087°11'511.4
2019-Oct-17 05:30N 16°55' W 087°05'611.9
2019-Oct-17 05:00N 16°56' W 086°59'612.1
2019-Oct-17 04:30N 16°56' W 086°53'611.2
2019-Oct-17 04:01N 16°51' W 086°49'611.3
2019-Oct-17 03:31N 16°46' W 086°49'611.3
2019-Oct-17 03:00N 16°40' W 086°49'510.9
2019-Oct-17 02:30N 16°35' W 086°49'510.8
2019-Oct-17 02:01N 16°29' W 086°49'510.6
2019-Oct-17 01:30N 16°24' W 086°49'5 9.9
2019-Oct-17 01:00N 16°20' W 086°46'510.5
2019-Oct-17 00:30N 16°17' W 086°42'510.2
2019-Oct-17 00:00N 16°14' W 086°38'510.2
2019-Oct-16 23:30N 16°15' W 086°32'5 9.1
2019-Oct-16 23:00N 16°18' W 086°30'1 2.1
2019-Oct-16 22:28N 16°20' W 086°30'0 0.0
2019-Oct-16 21:46N 16°20' W 086°30'0 0.0
2019-Oct-16 21:28N 16°20' W 086°30'0 0.0
2019-Oct-16 20:58N 16°20' W 086°30'0 0.0
2019-Oct-16 20:28N 16°20' W 086°30'0 0.0
2019-Oct-16 19:58N 16°20' W 086°30'0 0.0
2019-Oct-16 19:28N 16°20' W 086°30'0 0.0
2019-Oct-16 18:58N 16°20' W 086°30'0 0.0
2019-Oct-16 18:28N 16°20' W 086°30'0 0.0
2019-Oct-16 17:58N 16°20' W 086°30'0 0.0
2019-Oct-16 17:25N 16°20' W 086°30'0 0.0
2019-Oct-16 16:55N 16°20' W 086°30'0 0.0
2019-Oct-16 16:28N 16°20' W 086°30'0 0.0
2019-Oct-16 15:58N 16°20' W 086°30'0 0.0
2019-Oct-16 15:25N 16°20' W 086°30'0 0.0
2019-Oct-16 14:58N 16°20' W 086°30'0 0.0
2019-Oct-16 14:22N 16°20' W 086°30'0 0.0
2019-Oct-16 13:58N 16°20' W 086°30'0 0.0
2019-Oct-16 13:28N 16°20' W 086°30'0 0.0
2019-Oct-16 13:00N 16°20' W 086°30'1 1.4
2019-Oct-16 12:30N 16°19' W 086°30'3 6.2
2019-Oct-16 12:00N 16°16' W 086°31'917.1
2019-Oct-16 11:30N 16°15' W 086°40'1020.1
2019-Oct-16 11:00N 16°25' W 086°38'1021.1
2019-Oct-16 10:31N 16°34' W 086°34'1121.1
2019-Oct-16 10:00N 16°44' W 086°31'1220.7
2019-Oct-16 09:27N 16°55' W 086°27'2519.3
2019-Oct-16 08:09N 17°18' W 086°17'  
2019-Oct-13 23:33N 29°38' W 089°55'112.4
2019-Oct-13 23:29N 29°38' W 089°56'612.1
2019-Oct-13 23:00N 29°43' W 089°59'612.2
2019-Oct-13 22:30N 29°50' W 089°60'5 9.7
2019-Oct-13 21:59N 29°52' W 089°55'5 8.9
2019-Oct-13 21:29N 29°55' W 089°58'510.1
2019-Oct-13 21:00N 29°57' W 090°04'0 0.7
2019-Oct-13 20:25N 29°56' W 090°04'0 0.0
2019-Oct-13 19:55N 29°56' W 090°04'0 0.0
2019-Oct-13 19:25N 29°56' W 090°04'0 0.0
2019-Oct-13 18:55N 29°56' W 090°04'0 0.0
2019-Oct-13 18:25N 29°56' W 090°04'0 0.0
2019-Oct-13 17:55N 29°56' W 090°04'0 0.0
2019-Oct-13 17:19N 29°56' W 090°04'0 0.0
2019-Oct-13 16:55N 29°56' W 090°04'0 0.0
2019-Oct-13 16:25N 29°56' W 090°04'0 0.0
2019-Oct-13 15:55N 29°56' W 090°04'0 0.0
2019-Oct-13 15:25N 29°56' W 090°04'0 0.0
2019-Oct-13 14:55N 29°56' W 090°04'0 0.0
2019-Oct-13 14:25N 29°56' W 090°04'0 0.0
2019-Oct-13 13:55N 29°56' W 090°04'0 0.0
2019-Oct-13 13:25N 29°56' W 090°04'0 0.0
2019-Oct-13 12:55N 29°56' W 090°04'0 0.0
2019-Oct-13 12:25N 29°56' W 090°04'0 0.0
2019-Oct-13 11:55N 29°56' W 090°04'0 0.0
2019-Oct-13 11:25N 29°56' W 090°04'0 0.0
2019-Oct-13 10:55N 29°56' W 090°04'0 0.1
2019-Oct-13 10:30N 29°56' W 090°04'3 6.4
2019-Oct-13 10:00N 29°56' W 089°60'510.3
2019-Oct-13 09:30N 29°54' W 089°55'3 5.3
2019-Oct-13 09:00N 29°53' W 089°57'4 8.1
2019-Oct-13 08:30N 29°49' W 089°60'510.2
2019-Oct-13 08:00N 29°44' W 090°00'612.4
2019-Oct-13 07:28N 29°38' W 089°57'55418.2
2019-Oct-12 00:59N 20°51' W 086°47'1021.5
2019-Oct-12 00:30N 20°43' W 086°53'918.7
2019-Oct-12 00:01N 20°35' W 086°58'611.5
2019-Oct-11 23:31N 20°30' W 086°60'1 2.5
2019-Oct-11 22:59N 20°29' W 086°59'0 0.0
2019-Oct-11 22:29N 20°29' W 086°59'0 0.0
2019-Oct-11 21:59N 20°29' W 086°59'0 0.0
2019-Oct-11 21:29N 20°29' W 086°59'0 0.0
2019-Oct-11 20:59N 20°29' W 086°59'0 0.0
2019-Oct-11 20:23N 20°29' W 086°59'0 0.0
2019-Oct-11 19:59N 20°29' W 086°59'0 0.0
2019-Oct-11 19:29N 20°29' W 086°59'0 0.0
2019-Oct-11 18:59N 20°29' W 086°59'0 0.0
2019-Oct-11 18:29N 20°29' W 086°59'0 0.0
2019-Oct-11 17:56N 20°29' W 086°59'0 0.0
2019-Oct-11 17:29N 20°29' W 086°59'0 0.0
2019-Oct-11 16:59N 20°29' W 086°59'0 0.0
2019-Oct-11 16:23N 20°29' W 086°59'0 0.0
2019-Oct-11 15:59N 20°29' W 086°59'0 0.0
2019-Oct-11 15:29N 20°29' W 086°59'0 0.0
2019-Oct-11 14:59N 20°29' W 086°59'0 0.1
2019-Oct-11 14:30N 20°29' W 086°59'3 5.5
2019-Oct-11 14:00N 20°31' W 086°59'4 8.9
2019-Oct-11 13:30N 20°35' W 086°57'613.1
2019-Oct-11 13:01N 20°40' W 086°52'1116.8
2019-Oct-11 12:23N 20°40' W 086°40'  

Dump ship's entire track history